PWSweather.com
Personal Weather Stations
Station Observations
SHAHALMS1
Eftra, Falkenberg, HA

EftraFalkenberg, HA

Lat: 56.85, Lon: 12.65

Elevation: 140

Station Type:

http://hem.passagen.se/risarp101

High Low Average
Temperature 61.9°F16.6°C 52.9°F11.6°C 57.2°F14.0°C
Dew Point 57.6°F14.2°C 42.2°F5.7°C 51.4°F10.8°C
Winds 17.7 mph 28.5 kmh 4.2 mph 6.8 kmh 10.0 mph W16.1 kmh W
Wind Gusts 39.0 mph62.8 kmh 5.7 mph9.2 kmh 18.0 mph29.0 kmh
Humidity 88% 67% 81%
Pressure 30.01 in1016.3 mb 29.71 in1006.1 mb -
Precipitation 0.00 in0.0 mm - -
Hour Temp Dew Point Humidity Winds Wind Gusts Pressure Precip Precip Rate Daily Precip Total
12:00 AM 55.2°F12.9°C 49.8°F9.9°C 82% 8.3 mph W13.4 kmh W 15.4 mph24.8 kmh 29.95 in1014.2 mb 0.00 in0.0 mm 0.00 in0.0 mm 0.00 in0.0 mm
12:15 AM 55.2°F12.9°C 49.8°F9.9°C 82% 8.4 mph W13.5 kmh W 17.2 mph27.7 kmh 29.98 in1015.2 mb 0.00 in0.0 mm 0.00 in0.0 mm 0.00 in0.0 mm
12:30 AM 55.2°F12.9°C 49.8°F9.9°C 82% 10.7 mph W17.2 kmh W 22.5 mph36.2 kmh 29.98 in1015.2 mb 0.00 in0.0 mm 0.00 in0.0 mm 0.00 in0.0 mm
12:45 AM 55.4°F13.0°C 50.0°F10.0°C 82% 9.6 mph W15.4 kmh W 12.9 mph20.8 kmh 29.98 in1015.2 mb 0.00 in0.0 mm 0.00 in0.0 mm 0.00 in0.0 mm
01:00 AM 55.4°F13.0°C 49.7°F9.8°C 81% 12.1 mph W19.5 kmh W 17.2 mph27.7 kmh 29.98 in1015.2 mb 0.00 in0.0 mm 0.00 in0.0 mm 0.00 in0.0 mm
01:15 AM 55.4°F13.0°C 49.7°F9.8°C 81% 8.0 mph W12.9 kmh W 10.4 mph16.7 kmh 30.01 in1016.3 mb 0.00 in0.0 mm 0.00 in0.0 mm 0.00 in0.0 mm
01:30 AM 55.4°F13.0°C 49.7°F9.8°C 81% 12.5 mph NW20.1 kmh NW 15.4 mph24.8 kmh 29.98 in1015.2 mb 0.00 in0.0 mm 0.00 in0.0 mm 0.00 in0.0 mm
01:45 AM 55.4°F13.0°C 49.7°F9.8°C 81% 10.6 mph W17.1 kmh W 23.3 mph37.5 kmh 29.98 in1015.2 mb 0.00 in0.0 mm 0.00 in0.0 mm 0.00 in0.0 mm
02:00 AM 55.4°F13.0°C 49.7°F9.8°C 81% 7.0 mph W11.3 kmh W 14.0 mph22.5 kmh 30.01 in1016.3 mb 0.00 in0.0 mm 0.00 in0.0 mm 0.00 in0.0 mm
02:15 AM 55.4°F13.0°C 49.7°F9.8°C 81% 6.1 mph WNW9.8 kmh WNW 9.3 mph15.0 kmh 29.95 in1014.2 mb 0.00 in0.0 mm 0.00 in0.0 mm 0.00 in0.0 mm
02:30 AM 55.4°F13.0°C 49.7°F9.8°C 81% 8.0 mph W12.9 kmh W 15.7 mph25.3 kmh 30.01 in1016.3 mb 0.00 in0.0 mm 0.00 in0.0 mm 0.00 in0.0 mm
02:45 AM 55.2°F12.9°C 49.5°F9.7°C 81% 8.5 mph W13.7 kmh W 17.5 mph28.2 kmh 30.01 in1016.3 mb 0.00 in0.0 mm 0.00 in0.0 mm 0.00 in0.0 mm
03:00 AM 55.2°F12.9°C 49.5°F9.7°C 81% 13.1 mph W21.1 kmh W 23.6 mph38.0 kmh 29.98 in1015.2 mb 0.00 in0.0 mm 0.00 in0.0 mm 0.00 in0.0 mm
03:15 AM 55.0°F12.8°C 49.3°F9.6°C 81% 13.0 mph W20.9 kmh W 30.4 mph48.9 kmh 29.98 in1015.2 mb 0.00 in0.0 mm 0.00 in0.0 mm 0.00 in0.0 mm
03:30 AM 55.0°F12.8°C 49.3°F9.6°C 81% 11.1 mph W17.9 kmh W 26.1 mph42.0 kmh 29.98 in1015.2 mb 0.00 in0.0 mm 0.00 in0.0 mm 0.00 in0.0 mm
03:45 AM 55.0°F12.8°C 49.3°F9.6°C 81% 11.4 mph WNW18.3 kmh WNW 20.8 mph33.5 kmh 29.98 in1015.2 mb 0.00 in0.0 mm 0.00 in0.0 mm 0.00 in0.0 mm
04:00 AM 55.0°F12.8°C 49.3°F9.6°C 81% 17.7 mph W28.5 kmh W 24.3 mph39.1 kmh 29.95 in1014.2 mb 0.00 in0.0 mm 0.00 in0.0 mm 0.00 in0.0 mm
04:15 AM 54.7°F12.6°C 48.6°F9.2°C 80% 9.4 mph W15.1 kmh W 17.5 mph28.2 kmh 29.95 in1014.2 mb 0.00 in0.0 mm 0.00 in0.0 mm 0.00 in0.0 mm
04:30 AM 54.5°F12.5°C 48.5°F9.2°C 80% 13.8 mph W22.2 kmh W 24.3 mph39.1 kmh 29.95 in1014.2 mb 0.00 in0.0 mm 0.00 in0.0 mm 0.00 in0.0 mm
04:45 AM 54.3°F12.4°C 48.3°F9.1°C 80% 12.1 mph WNW19.5 kmh WNW 35.8 mph57.6 kmh 29.95 in1014.2 mb 0.00 in0.0 mm 0.00 in0.0 mm 0.00 in0.0 mm
05:00 AM 54.1°F12.3°C 48.1°F8.9°C 80% 7.2 mph W11.6 kmh W 13.6 mph21.9 kmh 29.95 in1014.2 mb 0.00 in0.0 mm 0.00 in0.0 mm 0.00 in0.0 mm
05:15 AM 54.0°F12.2°C 47.9°F8.8°C 80% 9.2 mph WNW14.8 kmh WNW 19.0 mph30.6 kmh 29.98 in1015.2 mb 0.00 in0.0 mm 0.00 in0.0 mm 0.00 in0.0 mm
05:30 AM 53.8°F12.1°C 47.4°F8.6°C 79% 8.6 mph W13.8 kmh W 19.0 mph30.6 kmh 29.98 in1015.2 mb 0.00 in0.0 mm 0.00 in0.0 mm 0.00 in0.0 mm
05:45 AM 53.8°F12.1°C 47.4°F8.6°C 79% 7.9 mph WNW12.7 kmh WNW 19.0 mph30.6 kmh 29.98 in1015.2 mb 0.00 in0.0 mm 0.00 in0.0 mm 0.00 in0.0 mm
06:00 AM 53.8°F12.1°C 47.4°F8.6°C 79% 6.6 mph W10.6 kmh W 12.2 mph19.6 kmh 29.98 in1015.2 mb 0.00 in0.0 mm 0.00 in0.0 mm 0.00 in0.0 mm
06:15 AM 54.1°F12.3°C 47.8°F8.8°C 79% 5.6 mph WNW9.0 kmh WNW 12.5 mph20.1 kmh 30.01 in1016.3 mb 0.00 in0.0 mm 0.00 in0.0 mm 0.00 in0.0 mm
06:30 AM 54.3°F12.4°C 47.9°F8.8°C 79% 6.8 mph WNW10.9 kmh WNW 12.9 mph20.8 kmh 30.01 in1016.3 mb 0.00 in0.0 mm 0.00 in0.0 mm 0.00 in0.0 mm
06:45 AM 54.3°F12.4°C 47.9°F8.8°C 79% 4.2 mph WNW6.8 kmh WNW 6.1 mph9.8 kmh 29.98 in1015.2 mb 0.00 in0.0 mm 0.00 in0.0 mm 0.00 in0.0 mm
07:00 AM 54.5°F12.5°C 48.5°F9.2°C 80% 6.6 mph W10.6 kmh W 10.7 mph17.2 kmh 30.01 in1016.3 mb 0.00 in0.0 mm 0.00 in0.0 mm 0.00 in0.0 mm
07:15 AM 54.5°F12.5°C 48.1°F8.9°C 79% 11.1 mph W17.9 kmh W 13.6 mph21.9 kmh 30.01 in1016.3 mb 0.00 in0.0 mm 0.00 in0.0 mm 0.00 in0.0 mm
07:30 AM 54.7°F12.6°C 48.0°F8.9°C 78% 8.1 mph W13.0 kmh W 10.0 mph16.1 kmh 30.01 in1016.3 mb 0.00 in0.0 mm 0.00 in0.0 mm 0.00 in0.0 mm
07:45 AM 55.4°F13.0°C 48.3°F9.1°C 77% 6.7 mph W10.8 kmh W 12.9 mph20.8 kmh 29.98 in1015.2 mb 0.00 in0.0 mm 0.00 in0.0 mm 0.00 in0.0 mm
08:00 AM 55.8°F13.2°C 48.7°F9.3°C 77% 7.0 mph W11.3 kmh W 17.5 mph28.2 kmh 29.98 in1015.2 mb 0.00 in0.0 mm 0.00 in0.0 mm 0.00 in0.0 mm
08:15 AM 56.5°F13.6°C 49.0°F9.4°C 76% 8.5 mph W13.7 kmh W 11.8 mph19.0 kmh 29.98 in1015.2 mb 0.00 in0.0 mm 0.00 in0.0 mm 0.00 in0.0 mm
08:30 AM 56.3°F13.5°C 48.8°F9.3°C 76% 4.9 mph N7.9 kmh N 6.4 mph10.3 kmh 29.98 in1015.2 mb 0.00 in0.0 mm 0.00 in0.0 mm 0.00 in0.0 mm
08:45 AM 56.7°F13.7°C 48.8°F9.3°C 75% 4.8 mph W7.7 kmh W 6.1 mph9.8 kmh 29.98 in1015.2 mb 0.00 in0.0 mm 0.00 in0.0 mm 0.00 in0.0 mm
09:00 AM 56.7°F13.7°C 48.5°F9.2°C 74% 4.8 mph WNW7.7 kmh WNW 10.0 mph16.1 kmh 29.98 in1015.2 mb 0.00 in0.0 mm 0.00 in0.0 mm 0.00 in0.0 mm
09:15 AM 57.0°F13.9°C 49.2°F9.6°C 75% 9.8 mph W15.8 kmh W 12.9 mph20.8 kmh 29.98 in1015.2 mb 0.00 in0.0 mm 0.00 in0.0 mm 0.00 in0.0 mm
09:30 AM 57.2°F14.0°C 49.7°F9.8°C 76% 5.7 mph W9.2 kmh W 8.9 mph14.3 kmh 29.95 in1014.2 mb 0.00 in0.0 mm 0.00 in0.0 mm 0.00 in0.0 mm
09:45 AM 57.0°F13.9°C 50.2°F10.1°C 78% 4.2 mph S6.8 kmh S 10.4 mph16.7 kmh 29.98 in1015.2 mb 0.00 in0.0 mm 0.00 in0.0 mm 0.00 in0.0 mm
10:00 AM 57.2°F14.0°C 50.7°F10.4°C 79% 8.1 mph SSW13.0 kmh SSW 11.5 mph18.5 kmh 29.98 in1015.2 mb 0.00 in0.0 mm 0.00 in0.0 mm 0.00 in0.0 mm
10:15 AM 57.7°F14.3°C 51.9°F11.1°C 81% 5.0 mph S8.0 kmh S 6.4 mph10.3 kmh 29.98 in1015.2 mb 0.00 in0.0 mm 0.00 in0.0 mm 0.00 in0.0 mm
10:30 AM 58.3°F14.6°C 52.8°F11.6°C 82% 4.9 mph S7.9 kmh S 6.1 mph9.8 kmh 29.95 in1014.2 mb 0.00 in0.0 mm 0.00 in0.0 mm 0.00 in0.0 mm
10:45 AM 58.5°F14.7°C 53.6°F12.0°C 84% 4.7 mph W7.6 kmh W 5.7 mph9.2 kmh 29.95 in1014.2 mb 0.00 in0.0 mm 0.00 in0.0 mm 0.00 in0.0 mm
11:00 AM 58.6°F14.8°C 54.1°F12.3°C 85% 4.7 mph W7.6 kmh W 5.7 mph9.2 kmh 29.95 in1014.2 mb 0.00 in0.0 mm 0.00 in0.0 mm 0.00 in0.0 mm
11:15 AM 59.4°F15.2°C 55.2°F12.9°C 86% 5.2 mph W8.4 kmh W 6.4 mph10.3 kmh 29.92 in1013.2 mb 0.00 in0.0 mm 0.00 in0.0 mm 0.00 in0.0 mm
11:30 AM 59.5°F15.3°C 55.3°F12.9°C 86% 10.7 mph W17.2 kmh W 23.6 mph38.0 kmh 29.89 in1012.2 mb 0.00 in0.0 mm 0.00 in0.0 mm 0.00 in0.0 mm
11:45 AM 59.4°F15.2°C 55.5°F13.1°C 87% 8.1 mph W13.0 kmh W 10.0 mph16.1 kmh 29.89 in1012.2 mb 0.00 in0.0 mm 0.00 in0.0 mm 0.00 in0.0 mm
12:00 PM 59.7°F15.4°C 56.2°F13.4°C 88% 13.8 mph SW22.2 kmh SW 26.5 mph42.6 kmh 29.92 in1013.2 mb 0.00 in0.0 mm 0.00 in0.0 mm 0.00 in0.0 mm
12:15 PM 60.4°F15.8°C 56.9°F13.8°C 88% 14.0 mph W22.5 kmh W 17.2 mph27.7 kmh 29.92 in1013.2 mb 0.00 in0.0 mm 0.00 in0.0 mm 0.00 in0.0 mm
12:30 PM 60.6°F15.9°C 56.7°F13.7°C 87% 13.7 mph W22.0 kmh W 23.3 mph37.5 kmh 29.92 in1013.2 mb 0.00 in0.0 mm 0.00 in0.0 mm 0.00 in0.0 mm
12:45 PM 60.8°F16.0°C 56.9°F13.8°C 87% 14.0 mph W22.5 kmh W 17.2 mph27.7 kmh 29.92 in1013.2 mb 0.00 in0.0 mm 0.00 in0.0 mm 0.00 in0.0 mm
01:00 PM 61.2°F16.2°C 57.3°F14.1°C 87% 13.1 mph WSW21.1 kmh WSW 22.9 mph36.9 kmh 29.89 in1012.2 mb 0.00 in0.0 mm 0.00 in0.0 mm 0.00 in0.0 mm
01:15 PM 61.7°F16.5°C 57.5°F14.2°C 86% 11.7 mph WSW18.8 kmh WSW 20.8 mph33.5 kmh 29.89 in1012.2 mb 0.00 in0.0 mm 0.00 in0.0 mm 0.00 in0.0 mm
01:30 PM 61.7°F16.5°C 57.1°F13.9°C 85% 10.4 mph WNW16.7 kmh WNW 21.8 mph35.1 kmh 29.86 in1011.2 mb 0.00 in0.0 mm 0.00 in0.0 mm 0.00 in0.0 mm
01:45 PM 61.5°F16.4°C 57.0°F13.9°C 85% 13.9 mph WSW22.4 kmh WSW 26.8 mph43.1 kmh 29.86 in1011.2 mb 0.00 in0.0 mm 0.00 in0.0 mm 0.00 in0.0 mm
02:00 PM 61.9°F16.6°C 57.6°F14.2°C 86% 15.3 mph WSW24.6 kmh WSW 22.9 mph36.9 kmh 29.86 in1011.2 mb 0.00 in0.0 mm 0.00 in0.0 mm 0.00 in0.0 mm
02:15 PM 61.7°F16.5°C 57.1°F13.9°C 85% 9.7 mph W15.6 kmh W 21.1 mph34.0 kmh 29.86 in1011.2 mb 0.00 in0.0 mm 0.00 in0.0 mm 0.00 in0.0 mm
02:30 PM 61.7°F16.5°C 57.5°F14.2°C 86% 11.6 mph WSW18.7 kmh WSW 22.5 mph36.2 kmh 29.86 in1011.2 mb 0.00 in0.0 mm 0.00 in0.0 mm 0.00 in0.0 mm
02:45 PM 61.3°F16.3°C 56.8°F13.8°C 85% 13.0 mph W20.9 kmh W 24.7 mph39.8 kmh 29.89 in1012.2 mb 0.00 in0.0 mm 0.00 in0.0 mm 0.00 in0.0 mm
03:00 PM 61.0°F16.1°C 57.1°F13.9°C 87% 12.3 mph W19.8 kmh W 20.8 mph33.5 kmh 29.86 in1011.2 mb 0.00 in0.0 mm 0.00 in0.0 mm 0.00 in0.0 mm
03:15 PM 61.2°F16.2°C 57.3°F14.1°C 87% 9.6 mph W15.4 kmh W 16.8 mph27.0 kmh 29.86 in1011.2 mb 0.00 in0.0 mm 0.00 in0.0 mm 0.00 in0.0 mm
03:30 PM 61.2°F16.2°C 57.3°F14.1°C 87% 11.2 mph W18.0 kmh W 20.8 mph33.5 kmh 29.83 in1010.2 mb 0.00 in0.0 mm 0.00 in0.0 mm 0.00 in0.0 mm
03:45 PM 60.8°F16.0°C 56.9°F13.8°C 87% 10.3 mph WSW16.6 kmh WSW 17.2 mph27.7 kmh 29.80 in1009.1 mb 0.00 in0.0 mm 0.00 in0.0 mm 0.00 in0.0 mm
04:00 PM 60.6°F15.9°C 56.7°F13.7°C 87% 10.5 mph WSW16.9 kmh WSW 20.4 mph32.8 kmh 29.80 in1009.1 mb 0.00 in0.0 mm 0.00 in0.0 mm 0.00 in0.0 mm
04:15 PM 60.6°F15.9°C 57.0°F13.9°C 88% 12.4 mph W20.0 kmh W 23.3 mph37.5 kmh 29.80 in1009.1 mb 0.00 in0.0 mm 0.00 in0.0 mm 0.00 in0.0 mm
04:30 PM 60.4°F15.8°C 56.9°F13.8°C 88% 11.4 mph WSW18.3 kmh WSW 21.1 mph34.0 kmh 29.80 in1009.1 mb 0.00 in0.0 mm 0.00 in0.0 mm 0.00 in0.0 mm
04:45 PM 60.4°F15.8°C 56.9°F13.8°C 88% 8.9 mph W14.3 kmh W 14.0 mph22.5 kmh 29.80 in1009.1 mb 0.00 in0.0 mm 0.00 in0.0 mm 0.00 in0.0 mm
05:00 PM 60.3°F15.7°C 56.7°F13.7°C 88% 10.1 mph WSW16.3 kmh WSW 19.3 mph31.1 kmh 29.80 in1009.1 mb 0.00 in0.0 mm 0.00 in0.0 mm 0.00 in0.0 mm
05:15 PM 60.1°F15.6°C 56.5°F13.6°C 88% 8.4 mph W13.5 kmh W 10.4 mph16.7 kmh 29.80 in1009.1 mb 0.00 in0.0 mm 0.00 in0.0 mm 0.00 in0.0 mm
05:30 PM 60.1°F15.6°C 56.2°F13.4°C 87% 8.1 mph S13.0 kmh S 10.0 mph16.1 kmh 29.80 in1009.1 mb 0.00 in0.0 mm 0.00 in0.0 mm 0.00 in0.0 mm
05:45 PM 59.9°F15.5°C 56.0°F13.3°C 87% 7.3 mph W11.7 kmh W 8.9 mph14.3 kmh 29.80 in1009.1 mb 0.00 in0.0 mm 0.00 in0.0 mm 0.00 in0.0 mm
06:00 PM 59.7°F15.4°C 56.2°F13.4°C 88% 9.4 mph W15.1 kmh W 12.9 mph20.8 kmh 29.77 in1008.1 mb 0.00 in0.0 mm 0.00 in0.0 mm 0.00 in0.0 mm
06:15 PM 59.5°F15.3°C 56.0°F13.3°C 88% 8.3 mph W13.4 kmh W 15.4 mph24.8 kmh 29.77 in1008.1 mb 0.00 in0.0 mm 0.00 in0.0 mm 0.00 in0.0 mm
06:30 PM 59.4°F15.2°C 55.8°F13.2°C 88% 7.2 mph W11.6 kmh W 15.7 mph25.3 kmh 29.77 in1008.1 mb 0.00 in0.0 mm 0.00 in0.0 mm 0.00 in0.0 mm
06:45 PM 59.2°F15.1°C 55.3°F12.9°C 87% 9.9 mph SW15.9 kmh SW 17.2 mph27.7 kmh 29.74 in1007.1 mb 0.00 in0.0 mm 0.00 in0.0 mm 0.00 in0.0 mm
07:00 PM 59.2°F15.1°C 53.4°F11.9°C 81% 11.6 mph W18.7 kmh W 26.1 mph42.0 kmh 29.74 in1007.1 mb 0.00 in0.0 mm 0.00 in0.0 mm 0.00 in0.0 mm
07:15 PM 58.8°F14.9°C 51.6°F10.9°C 77% 10.6 mph W17.1 kmh W 20.4 mph32.8 kmh 29.74 in1007.1 mb 0.00 in0.0 mm 0.00 in0.0 mm 0.00 in0.0 mm
07:30 PM 58.8°F14.9°C 51.6°F10.9°C 77% 10.0 mph W16.1 kmh W 19.7 mph31.7 kmh 29.71 in1006.1 mb 0.00 in0.0 mm 0.00 in0.0 mm 0.00 in0.0 mm
07:45 PM 58.6°F14.8°C 51.4°F10.8°C 77% 9.8 mph W15.8 kmh W 17.5 mph28.2 kmh 29.74 in1007.1 mb 0.00 in0.0 mm 0.00 in0.0 mm 0.00 in0.0 mm
08:00 PM 58.5°F14.7°C 51.6°F10.9°C 78% 10.4 mph W16.7 kmh W 16.8 mph27.0 kmh 29.77 in1008.1 mb 0.00 in0.0 mm 0.00 in0.0 mm 0.00 in0.0 mm
08:15 PM 58.1°F14.5°C 51.3°F10.7°C 78% 9.4 mph W15.1 kmh W 19.3 mph31.1 kmh 29.74 in1007.1 mb 0.00 in0.0 mm 0.00 in0.0 mm 0.00 in0.0 mm
08:30 PM 57.6°F14.2°C 51.1°F10.6°C 79% 9.9 mph WSW15.9 kmh WSW 21.5 mph34.6 kmh 29.71 in1006.1 mb 0.00 in0.0 mm 0.00 in0.0 mm 0.00 in0.0 mm
08:45 PM 57.0°F13.9°C 49.9°F9.9°C 77% 10.6 mph W17.1 kmh W 27.2 mph43.8 kmh 29.71 in1006.1 mb 0.00 in0.0 mm 0.00 in0.0 mm 0.00 in0.0 mm
09:00 PM 56.8°F13.8°C 49.7°F9.8°C 77% 12.0 mph W19.3 kmh W 31.9 mph51.3 kmh 29.74 in1007.1 mb 0.00 in0.0 mm 0.00 in0.0 mm 0.00 in0.0 mm
09:15 PM 56.3°F13.5°C 48.5°F9.2°C 75% 12.0 mph W19.3 kmh W 33.6 mph54.1 kmh 29.74 in1007.1 mb 0.00 in0.0 mm 0.00 in0.0 mm 0.00 in0.0 mm
09:30 PM 55.4°F13.0°C 48.7°F9.3°C 78% 10.3 mph W16.6 kmh W 19.0 mph30.6 kmh 29.74 in1007.1 mb 0.00 in0.0 mm 0.00 in0.0 mm 0.00 in0.0 mm
09:45 PM 54.3°F12.4°C 48.9°F9.4°C 82% 10.2 mph W16.4 kmh W 23.3 mph37.5 kmh 29.74 in1007.1 mb 0.00 in0.0 mm 0.00 in0.0 mm 0.00 in0.0 mm
10:00 PM 54.0°F12.2°C 47.9°F8.8°C 80% 10.5 mph W16.9 kmh W 21.1 mph34.0 kmh 29.77 in1008.1 mb 0.00 in0.0 mm 0.00 in0.0 mm 0.00 in0.0 mm
10:15 PM 53.8°F12.1°C 47.1°F8.4°C 78% 10.7 mph W17.2 kmh W 26.1 mph42.0 kmh 29.74 in1007.1 mb 0.00 in0.0 mm 0.00 in0.0 mm 0.00 in0.0 mm
10:30 PM 53.8°F12.1°C 45.7°F7.6°C 74% 11.9 mph W19.2 kmh W 27.2 mph43.8 kmh 29.74 in1007.1 mb 0.00 in0.0 mm 0.00 in0.0 mm 0.00 in0.0 mm
10:45 PM 53.6°F12.0°C 44.4°F6.9°C 71% 11.6 mph W18.7 kmh W 27.9 mph44.9 kmh 29.77 in1008.1 mb 0.00 in0.0 mm 0.00 in0.0 mm 0.00 in0.0 mm
11:00 PM 53.2°F11.8°C 42.9°F6.1°C 68% 14.9 mph W24.0 kmh W 39.0 mph62.8 kmh 29.77 in1008.1 mb 0.00 in0.0 mm 0.00 in0.0 mm 0.00 in0.0 mm
11:15 PM 53.1°F11.7°C 42.8°F6.0°C 68% 14.8 mph W23.8 kmh W 35.8 mph57.6 kmh 29.74 in1007.1 mb 0.00 in0.0 mm 0.00 in0.0 mm 0.00 in0.0 mm
11:30 PM 52.9°F11.6°C 42.2°F5.7°C 67% 13.2 mph W21.2 kmh W 34.0 mph54.7 kmh 29.77 in1008.1 mb 0.00 in0.0 mm 0.00 in0.0 mm 0.00 in0.0 mm
11:45 PM 52.9°F11.6°C 42.2°F5.7°C 67% 12.5 mph W20.1 kmh W 27.9 mph44.9 kmh 29.77 in1008.1 mb 0.00 in0.0 mm 0.00 in0.0 mm 0.00 in0.0 mm